createdAt,value
2019-05-15T00:00:05.833Z,3.25
2019-05-15T00:01:08.477Z,3.19
2019-05-15T00:02:10.600Z,3.19
2019-05-15T00:03:08.377Z,3.19
2019-05-15T00:04:05.764Z,3.19
2019-05-15T00:05:05.804Z,3.12
2019-05-15T00:06:08.234Z,3.12
2019-05-15T00:07:05.583Z,3.12
2019-05-15T00:08:05.427Z,3.12
2019-05-15T00:09:05.028Z,3.12
2019-05-15T00:10:05.343Z,3.12
2019-05-15T00:11:05.349Z,3.06
2019-05-15T00:12:05.404Z,3.06
2019-05-15T00:13:05.904Z,3.06
2019-05-15T00:14:05.181Z,3.00
2019-05-15T00:15:05.324Z,3.00
2019-05-15T00:16:08.251Z,3.00
2019-05-15T00:17:08.115Z,3.00
2019-05-15T00:18:05.823Z,2.94
2019-05-15T00:19:05.986Z,2.94
2019-05-15T00:20:05.097Z,2.94
2019-05-15T00:21:05.431Z,2.94
2019-05-15T00:22:05.414Z,2.88
2019-05-15T00:23:05.743Z,2.88
2019-05-15T00:24:05.776Z,2.88
2019-05-15T00:25:05.985Z,2.88
2019-05-15T00:26:05.111Z,2.81
2019-05-15T00:27:08.014Z,2.81
2019-05-15T00:28:05.344Z,2.81
2019-05-15T00:29:12.568Z,2.81
2019-05-15T00:30:05.088Z,2.81
2019-05-15T00:31:05.204Z,2.75
2019-05-15T00:32:05.337Z,2.81
2019-05-15T00:33:05.419Z,2.75
2019-05-15T00:34:05.603Z,2.75
2019-05-15T00:35:06.044Z,2.69
2019-05-15T00:36:05.945Z,2.75
2019-05-15T00:37:05.325Z,2.69
2019-05-15T00:38:05.790Z,2.69
2019-05-15T00:39:08.248Z,2.69
2019-05-15T00:40:05.076Z,2.69
2019-05-15T00:41:05.867Z,2.69
2019-05-15T00:42:08.129Z,2.69
2019-05-15T00:43:05.798Z,2.69
2019-05-15T00:44:05.409Z,2.62
2019-05-15T00:45:05.270Z,2.62
2019-05-15T00:46:05.244Z,2.62
2019-05-15T00:47:05.411Z,2.62
2019-05-15T00:48:06.037Z,2.56
2019-05-15T00:49:08.642Z,2.56
2019-05-15T00:50:05.244Z,2.56
2019-05-15T00:51:05.406Z,2.56
2019-05-15T00:52:05.397Z,2.56
2019-05-15T00:53:08.037Z,2.50
2019-05-15T00:54:05.151Z,2.50
2019-05-15T00:55:05.407Z,2.50
2019-05-15T00:56:05.401Z,2.50
2019-05-15T00:57:05.575Z,2.44
2019-05-15T00:58:05.870Z,2.44
2019-05-15T00:59:05.146Z,2.44
2019-05-15T01:00:07.691Z,2.38
2019-05-15T01:01:05.715Z,2.38
2019-05-15T01:02:08.132Z,2.38
2019-05-15T01:03:05.245Z,2.38
2019-05-15T01:04:05.324Z,2.31
2019-05-15T01:05:07.739Z,2.31
2019-05-15T01:06:08.135Z,2.31
2019-05-15T01:07:08.134Z,2.31
2019-05-15T01:08:08.039Z,2.31
2019-05-15T01:09:05.306Z,2.25
2019-05-15T01:10:05.582Z,2.25
2019-05-15T01:11:05.495Z,2.25
2019-05-15T01:12:05.560Z,2.25
2019-05-15T01:13:07.751Z,2.19
2019-05-15T01:14:05.100Z,2.19
2019-05-15T01:15:05.474Z,2.19
2019-05-15T01:16:05.893Z,2.19
2019-05-15T01:17:05.945Z,2.19
2019-05-15T01:18:04.996Z,2.19
2019-05-15T01:19:05.803Z,2.12
2019-05-15T01:20:08.284Z,2.12
2019-05-15T01:21:05.093Z,2.12
2019-05-15T01:22:05.879Z,2.12
2019-05-15T01:23:08.575Z,2.12
2019-05-15T01:24:08.261Z,2.12
2019-05-15T01:25:05.576Z,2.12
2019-05-15T01:26:05.551Z,2.12
2019-05-15T01:27:05.816Z,2.12
2019-05-15T01:28:06.428Z,2.06
2019-05-15T01:29:05.881Z,2.06
2019-05-15T01:30:05.547Z,2.06
2019-05-15T01:31:05.481Z,2.06
2019-05-15T01:32:05.071Z,2.06
2019-05-15T01:33:08.250Z,2.06
2019-05-15T01:34:06.053Z,2.00
2019-05-15T01:35:05.087Z,2.00
2019-05-15T01:36:05.234Z,2.00
2019-05-15T01:37:08.375Z,2.00
2019-05-15T01:38:05.150Z,2.00
2019-05-15T01:39:07.836Z,1.94
2019-05-15T01:40:05.176Z,1.94
2019-05-15T01:41:05.158Z,1.94
2019-05-15T01:42:05.131Z,1.88
2019-05-15T01:43:05.811Z,1.88
2019-05-15T01:44:05.967Z,1.88
2019-05-15T01:45:05.341Z,1.88
2019-05-15T01:46:05.413Z,1.88
2019-05-15T01:47:05.483Z,1.88
2019-05-15T01:48:07.977Z,1.81
2019-05-15T01:49:08.009Z,1.81
2019-05-15T01:50:05.317Z,1.81
2019-05-15T01:51:05.888Z,1.81
2019-05-15T01:52:07.916Z,1.81
2019-05-15T01:53:05.140Z,1.81
2019-05-15T01:54:05.787Z,1.75
2019-05-15T01:55:05.225Z,1.75
2019-05-15T01:56:08.185Z,1.75
2019-05-15T01:57:06.039Z,1.75
2019-05-15T01:58:05.808Z,1.75
2019-05-15T01:59:05.902Z,1.75
2019-05-15T02:00:05.878Z,1.75
2019-05-15T02:01:05.236Z,1.75
2019-05-15T02:02:05.730Z,1.75
2019-05-15T02:03:05.791Z,1.75
2019-05-15T02:04:05.407Z,1.75
2019-05-15T02:05:07.841Z,1.75
2019-05-15T02:06:08.000Z,1.75
2019-05-15T02:07:08.159Z,1.69
2019-05-15T02:08:05.308Z,1.69
2019-05-15T02:09:08.096Z,1.69
2019-05-15T02:10:05.392Z,1.69
2019-05-15T02:11:05.786Z,1.69
2019-05-15T02:12:08.629Z,1.69
2019-05-15T02:13:05.076Z,1.69
2019-05-15T02:14:05.076Z,1.69
2019-05-15T02:15:05.723Z,1.69
2019-05-15T02:16:08.184Z,1.69
2019-05-15T02:17:05.554Z,1.69
2019-05-15T02:18:08.373Z,1.69
2019-05-15T02:19:05.710Z,1.69
2019-05-15T02:20:08.131Z,1.62
2019-05-15T02:21:06.700Z,1.62
2019-05-15T02:22:05.547Z,1.62
2019-05-15T02:23:05.884Z,1.62
2019-05-15T02:24:07.790Z,1.62
2019-05-15T02:25:05.079Z,1.62
2019-05-15T02:26:05.146Z,1.62
2019-05-15T02:27:05.396Z,1.62
2019-05-15T02:28:05.633Z,1.56
2019-05-15T02:29:07.734Z,1.56
2019-05-15T02:30:17.729Z,1.56
2019-05-15T02:31:05.253Z,1.56
2019-05-15T02:32:05.473Z,1.56
2019-05-15T02:33:05.719Z,1.50
2019-05-15T02:34:05.322Z,1.56
2019-05-15T02:35:09.066Z,1.50
2019-05-15T02:36:08.803Z,1.50
2019-05-15T02:37:05.175Z,1.50
2019-05-15T02:38:05.159Z,1.50
2019-05-15T02:39:08.677Z,1.50
2019-05-15T02:40:06.048Z,1.50
2019-05-15T02:41:05.079Z,1.50
2019-05-15T02:42:08.992Z,1.50
2019-05-15T02:43:05.878Z,1.44
2019-05-15T02:44:05.112Z,1.44
2019-05-15T02:45:05.319Z,1.44
2019-05-15T02:46:05.885Z,1.50
2019-05-15T02:47:05.632Z,1.44
2019-05-15T02:48:08.575Z,1.44
2019-05-15T02:49:08.495Z,1.44
2019-05-15T02:50:05.154Z,1.44
2019-05-15T02:51:05.649Z,1.44
2019-05-15T02:52:09.033Z,1.44
2019-05-15T02:53:05.502Z,1.38
2019-05-15T02:54:05.738Z,1.38
2019-05-15T02:55:08.924Z,1.38
2019-05-15T02:56:05.319Z,1.38
2019-05-15T02:57:05.315Z,1.38
2019-05-15T02:58:05.311Z,1.38
2019-05-15T02:59:05.325Z,1.38
2019-05-15T03:00:05.261Z,1.38
2019-05-15T03:01:05.490Z,1.31
2019-05-15T03:02:05.567Z,1.31
2019-05-15T03:03:08.707Z,1.31
2019-05-15T03:04:09.030Z,1.31
2019-05-15T03:05:09.001Z,1.31
2019-05-15T03:06:05.959Z,1.31
2019-05-15T03:07:05.579Z,1.31
2019-05-15T03:08:05.095Z,1.31
2019-05-15T03:09:05.340Z,1.31
2019-05-15T03:10:05.228Z,1.31
2019-05-15T03:11:05.572Z,1.25
2019-05-15T03:12:05.639Z,1.25
2019-05-15T03:13:09.342Z,1.31
2019-05-15T03:14:05.812Z,1.31
2019-05-15T03:15:09.556Z,1.31
2019-05-15T03:16:05.821Z,1.25
2019-05-15T03:17:08.954Z,1.25
2019-05-15T03:18:05.401Z,1.25
2019-05-15T03:19:05.580Z,1.25
2019-05-15T03:20:05.643Z,1.50
2019-05-15T03:21:05.564Z,1.44
2019-05-15T03:22:05.483Z,1.38
2019-05-15T03:23:05.323Z,1.38
2019-05-15T03:24:05.413Z,1.31
2019-05-15T03:25:05.799Z,1.31
2019-05-15T03:26:08.603Z,1.31
2019-05-15T03:27:08.486Z,1.31
2019-05-15T03:28:05.552Z,1.31
2019-05-15T03:29:05.487Z,1.25
2019-05-15T03:30:05.728Z,1.25
2019-05-15T03:31:24.506Z,1.25
2019-05-15T03:32:17.112Z,1.25
2019-05-15T03:33:11.355Z,1.25
2019-05-15T03:34:14.442Z,1.25
2019-05-15T03:35:05.735Z,1.25
2019-05-15T03:36:05.184Z,1.44
2019-05-15T03:37:05.451Z,1.44
2019-05-15T03:38:05.398Z,1.44
2019-05-15T03:39:05.418Z,1.44
2019-05-15T03:40:05.975Z,1.44
2019-05-15T03:41:05.399Z,1.44
2019-05-15T03:42:05.404Z,1.44
2019-05-15T03:43:09.039Z,1.38
2019-05-15T03:44:09.162Z,1.38
2019-05-15T03:45:05.301Z,1.50
2019-05-15T03:46:05.331Z,1.50
2019-05-15T03:47:08.996Z,1.69
2019-05-15T03:48:08.960Z,1.62
2019-05-15T03:49:04.994Z,1.62
2019-05-15T03:50:08.891Z,1.56
2019-05-15T03:51:08.403Z,1.56
2019-05-15T03:52:05.888Z,1.50
2019-05-15T03:53:05.635Z,1.50
2019-05-15T03:54:05.167Z,1.50
2019-05-15T03:55:05.460Z,1.50
2019-05-15T03:56:05.492Z,1.50
2019-05-15T03:57:05.563Z,1.50
2019-05-15T03:58:05.316Z,1.50
2019-05-15T03:59:09.013Z,1.50
2019-05-15T04:00:05.406Z,1.50
2019-05-15T04:01:23.544Z,1.50
2019-05-15T04:02:05.161Z,1.50
2019-05-15T04:03:05.416Z,1.50
2019-05-15T04:04:05.486Z,1.50
2019-05-15T04:05:05.791Z,1.50
2019-05-15T04:06:06.049Z,1.56
2019-05-15T04:07:08.989Z,1.50
2019-05-15T04:08:06.074Z,1.50
2019-05-15T04:09:05.567Z,1.50
2019-05-15T04:10:09.798Z,1.50
2019-05-15T04:11:08.878Z,1.62
2019-05-15T04:12:05.312Z,1.62
2019-05-15T04:13:05.477Z,1.56
2019-05-15T04:14:05.647Z,1.56
2019-05-15T04:15:05.964Z,1.62
2019-05-15T04:16:05.744Z,1.62
2019-05-15T04:17:08.834Z,1.62
2019-05-15T04:18:08.897Z,1.62
2019-05-15T04:19:05.103Z,1.56
2019-05-15T04:20:05.236Z,1.69
2019-05-15T04:21:08.856Z,1.69
2019-05-15T04:22:05.403Z,1.75
2019-05-15T04:23:05.884Z,1.69
2019-05-15T04:24:05.067Z,1.69
2019-05-15T04:25:09.355Z,1.69
2019-05-15T04:26:08.893Z,1.69
2019-05-15T04:27:07.081Z,1.69
2019-05-15T04:28:09.374Z,1.75
2019-05-15T04:29:09.473Z,1.69
2019-05-15T04:30:05.963Z,1.75
2019-05-15T04:31:05.257Z,2.12
2019-05-15T04:32:06.142Z,2.38
2019-05-15T04:33:08.567Z,2.38
2019-05-15T04:34:08.898Z,2.62
2019-05-15T04:35:08.905Z,2.50
2019-05-15T04:36:05.586Z,2.50
2019-05-15T04:37:05.474Z,2.44
2019-05-15T04:38:09.050Z,2.38
2019-05-15T04:39:05.081Z,2.38
2019-05-15T04:40:05.390Z,2.31
2019-05-15T04:41:09.201Z,2.31
2019-05-15T04:42:07.842Z,2.25
2019-05-15T04:43:05.670Z,2.25
2019-05-15T04:44:05.422Z,2.25
2019-05-15T04:45:05.652Z,2.19
2019-05-15T04:46:05.494Z,2.19
2019-05-15T04:47:05.738Z,2.12
2019-05-15T04:48:05.795Z,2.12
2019-05-15T04:49:09.017Z,2.12
2019-05-15T04:50:08.559Z,2.12
2019-05-15T04:51:05.156Z,2.12
2019-05-15T04:52:05.331Z,2.12
2019-05-15T04:53:05.725Z,2.12
2019-05-15T04:54:05.403Z,2.12
2019-05-15T04:55:09.669Z,2.12
2019-05-15T04:56:05.239Z,2.19
2019-05-15T04:57:08.984Z,2.12
2019-05-15T04:58:05.882Z,2.19
2019-05-15T04:59:05.083Z,2.19
2019-05-15T05:00:05.422Z,2.94
2019-05-15T05:01:09.101Z,2.81
2019-05-15T05:02:16.823Z,2.75
2019-05-15T05:03:05.569Z,2.69
2019-05-15T05:04:05.340Z,3.19
2019-05-15T05:05:06.048Z,3.31
2019-05-15T05:06:05.161Z,3.19
2019-05-15T05:07:05.646Z,3.31
2019-05-15T05:08:09.050Z,3.25
2019-05-15T05:09:08.912Z,3.31
2019-05-15T05:10:05.172Z,3.25
2019-05-15T05:11:05.638Z,3.50
2019-05-15T05:12:08.384Z,3.50
2019-05-15T05:13:08.436Z,3.62
2019-05-15T05:14:08.238Z,3.62
2019-05-15T05:15:08.426Z,3.62
2019-05-15T05:16:05.177Z,3.56
2019-05-15T05:17:08.296Z,3.50
2019-05-15T05:18:05.901Z,3.44
2019-05-15T05:19:05.080Z,3.38
2019-05-15T05:20:07.937Z,3.38
2019-05-15T05:21:07.706Z,3.38
2019-05-15T05:22:07.710Z,3.38
2019-05-15T05:23:05.316Z,3.38
2019-05-15T05:24:07.820Z,3.38
2019-05-15T05:25:05.175Z,3.38
2019-05-15T05:26:08.112Z,3.31
2019-05-15T05:27:05.319Z,3.31
2019-05-15T05:28:05.400Z,3.31
2019-05-15T05:29:05.159Z,3.38
2019-05-15T05:30:08.147Z,3.38
2019-05-15T05:31:05.177Z,3.44
2019-05-15T05:32:08.454Z,3.44
2019-05-15T05:33:05.252Z,3.50
2019-05-15T05:34:05.488Z,3.50
2019-05-15T05:35:08.382Z,3.62
2019-05-15T05:36:07.700Z,3.75
2019-05-15T05:37:07.691Z,3.88
2019-05-15T05:38:07.735Z,3.88
2019-05-15T05:39:05.968Z,3.88
2019-05-15T05:40:05.076Z,3.94
2019-05-15T05:41:07.934Z,3.94
2019-05-15T05:42:05.323Z,4.12
2019-05-15T05:43:05.638Z,4.12
2019-05-15T05:44:05.089Z,4.19
2019-05-15T05:45:05.498Z,4.25
2019-05-15T05:46:05.876Z,4.25
2019-05-15T05:47:05.459Z,4.31
2019-05-15T05:48:05.813Z,4.38
2019-05-15T05:49:07.949Z,4.44
2019-05-15T05:50:05.165Z,4.50
2019-05-15T05:51:05.408Z,4.56
2019-05-15T05:52:08.240Z,4.75
2019-05-15T05:53:08.857Z,4.88
2019-05-15T05:54:08.388Z,4.94
2019-05-15T05:55:08.493Z,5.06
2019-05-15T05:56:05.797Z,5.19
2019-05-15T05:57:06.275Z,5.31
2019-05-15T05:58:08.010Z,5.44
2019-05-15T05:59:06.211Z,5.44
2019-05-15T06:00:05.325Z,5.50
2019-05-15T06:01:06.201Z,5.44
2019-05-15T06:02:05.254Z,5.38
2019-05-15T06:03:05.241Z,5.38
2019-05-15T06:04:07.740Z,5.38
2019-05-15T06:05:07.761Z,5.38
2019-05-15T06:06:05.589Z,5.38
2019-05-15T06:07:10.929Z,5.38
2019-05-15T06:08:07.902Z,5.44
2019-05-15T06:09:05.491Z,5.50
2019-05-15T06:10:05.729Z,5.50
2019-05-15T06:11:05.709Z,5.50
2019-05-15T06:12:07.690Z,5.62
2019-05-15T06:13:08.474Z,5.94
2019-05-15T06:14:05.317Z,5.94
2019-05-15T06:15:05.238Z,6.00
2019-05-15T06:16:05.409Z,6.00
2019-05-15T06:17:05.423Z,6.12
2019-05-15T06:18:08.122Z,6.06
2019-05-15T06:19:08.103Z,6.12
2019-05-15T06:20:08.051Z,6.19
2019-05-15T06:21:05.649Z,6.19
2019-05-15T06:22:05.574Z,6.19
2019-05-15T06:23:05.881Z,6.25
2019-05-15T06:24:07.802Z,6.25
2019-05-15T06:25:05.952Z,6.25
2019-05-15T06:26:05.113Z,6.31
2019-05-15T06:27:05.241Z,6.31
2019-05-15T06:28:05.491Z,6.31
2019-05-15T06:29:05.562Z,6.31
2019-05-15T06:30:05.607Z,6.44
2019-05-15T06:31:05.726Z,6.44
2019-05-15T06:32:05.198Z,6.44
2019-05-15T06:33:09.246Z,6.50
2019-05-15T06:34:08.157Z,6.50
2019-05-15T06:35:05.484Z,6.56
2019-05-15T06:36:05.313Z,6.69
2019-05-15T06:37:05.573Z,6.62
2019-05-15T06:38:07.987Z,6.62
2019-05-15T06:39:05.075Z,6.62
2019-05-15T06:40:08.264Z,6.56
2019-05-15T06:41:08.498Z,6.50
2019-05-15T06:42:05.245Z,6.44
2019-05-15T06:43:05.415Z,6.44
2019-05-15T06:44:07.844Z,6.44
2019-05-15T06:45:07.768Z,6.44
2019-05-15T06:46:05.390Z,6.50
2019-05-15T06:47:08.060Z,6.50
2019-05-15T06:48:05.555Z,6.62
2019-05-15T06:49:07.979Z,6.88
2019-05-15T06:50:05.945Z,6.88
2019-05-15T06:51:05.249Z,6.75
2019-05-15T06:52:05.412Z,6.69
2019-05-15T06:53:08.275Z,6.69
2019-05-15T06:54:05.234Z,6.69
2019-05-15T06:55:05.416Z,6.69
2019-05-15T06:56:07.396Z,6.69
2019-05-15T06:57:05.975Z,6.75
2019-05-15T06:58:05.351Z,6.94
2019-05-15T06:59:05.553Z,7.06
2019-05-15T07:00:05.813Z,7.06
2019-05-15T07:01:05.087Z,7.00
2019-05-15T07:02:05.241Z,6.94
2019-05-15T07:03:17.838Z,6.88
2019-05-15T07:04:05.626Z,6.69
2019-05-15T07:05:07.832Z,6.62
2019-05-15T07:06:05.680Z,6.56
2019-05-15T07:07:08.207Z,6.56
2019-05-15T07:08:08.876Z,6.56
2019-05-15T07:09:05.589Z,6.50
2019-05-15T07:10:05.549Z,6.56
2019-05-15T07:11:05.822Z,6.56
2019-05-15T07:12:07.914Z,6.69
2019-05-15T07:13:05.661Z,6.69
2019-05-15T07:14:05.705Z,6.62
2019-05-15T07:15:06.058Z,6.62
2019-05-15T07:16:05.167Z,6.56
2019-05-15T07:17:05.401Z,6.69
2019-05-15T07:18:05.638Z,6.56
2019-05-15T07:19:05.170Z,6.56
2019-05-15T07:20:05.411Z,6.62
2019-05-15T07:21:05.557Z,6.56
2019-05-15T07:22:06.530Z,6.50
2019-05-15T07:23:05.739Z,6.56
2019-05-15T07:24:05.811Z,6.56
2019-05-15T07:25:05.882Z,6.56
2019-05-15T07:26:05.814Z,6.56
2019-05-15T07:27:07.964Z,6.56
2019-05-15T07:28:05.553Z,6.56
2019-05-15T07:29:07.755Z,6.62
2019-05-15T07:30:07.638Z,6.56
2019-05-15T07:31:05.716Z,6.62
2019-05-15T07:32:08.008Z,6.81
2019-05-15T07:33:08.727Z,6.81
2019-05-15T07:34:05.312Z,6.88
2019-05-15T07:35:05.661Z,7.00
2019-05-15T07:36:07.776Z,7.00
2019-05-15T07:37:05.112Z,6.88
2019-05-15T07:38:05.171Z,6.88
2019-05-15T07:39:05.417Z,6.88
2019-05-15T07:40:05.399Z,6.88
2019-05-15T07:41:05.891Z,6.88
2019-05-15T07:42:08.410Z,6.88
2019-05-15T07:43:05.801Z,6.94
2019-05-15T07:44:05.267Z,7.00
2019-05-15T07:45:08.105Z,7.06
2019-05-15T07:46:07.621Z,7.06
2019-05-15T07:47:05.557Z,7.06
2019-05-15T07:48:05.918Z,7.19
2019-05-15T07:49:05.091Z,7.25
2019-05-15T07:50:05.245Z,7.31
2019-05-15T07:51:05.481Z,7.38
2019-05-15T07:52:05.261Z,7.50
2019-05-15T07:53:05.358Z,7.50
2019-05-15T07:54:05.564Z,7.44
2019-05-15T07:55:05.764Z,7.44
2019-05-15T07:56:05.884Z,7.44
2019-05-15T07:57:04.995Z,7.50
2019-05-15T07:58:05.251Z,7.56
2019-05-15T07:59:07.895Z,7.50
2019-05-15T08:00:05.486Z,7.44
2019-05-15T08:01:05.689Z,7.50
2019-05-15T08:02:05.079Z,7.44
2019-05-15T08:03:05.975Z,7.50
2019-05-15T08:04:22.478Z,7.50
2019-05-15T08:05:05.642Z,7.56
2019-05-15T08:06:08.207Z,7.62
2019-05-15T08:07:05.719Z,7.75
2019-05-15T08:08:05.642Z,7.69
2019-05-15T08:09:05.319Z,7.69
2019-05-15T08:10:05.493Z,7.69
2019-05-15T08:11:17.242Z,7.69
2019-05-15T08:12:05.313Z,7.75
2019-05-15T08:13:05.472Z,7.75
2019-05-15T08:14:05.648Z,7.81
2019-05-15T08:15:05.715Z,7.81
2019-05-15T08:16:05.424Z,7.81
2019-05-15T08:17:05.477Z,7.75
2019-05-15T08:18:09.636Z,7.81
2019-05-15T08:19:05.404Z,7.75
2019-05-15T08:20:05.751Z,7.81
2019-05-15T08:21:05.474Z,7.81
2019-05-15T08:22:05.743Z,7.81
2019-05-15T08:23:08.323Z,7.75
2019-05-15T08:24:05.649Z,7.75
2019-05-15T08:25:07.497Z,7.75
2019-05-15T08:26:05.424Z,7.94
2019-05-15T08:27:05.512Z,8.06
2019-05-15T08:28:08.244Z,8.06
2019-05-15T08:29:05.902Z,8.12
2019-05-15T08:30:06.066Z,8.12
2019-05-15T08:31:07.387Z,8.12
2019-05-15T08:32:07.819Z,8.06
2019-05-15T08:33:05.494Z,8.06
2019-05-15T08:34:13.339Z,8.06
2019-05-15T08:35:08.033Z,8.06
2019-05-15T08:36:08.343Z,8.19
2019-05-15T08:37:07.918Z,8.38
2019-05-15T08:38:05.256Z,8.44
2019-05-15T08:39:08.294Z,8.44
2019-05-15T08:40:05.572Z,8.38
2019-05-15T08:41:10.688Z,8.44
2019-05-15T08:42:07.943Z,8.44
2019-05-15T08:43:05.489Z,8.44
2019-05-15T08:44:05.603Z,8.44
2019-05-15T08:45:06.010Z,8.44
2019-05-15T08:46:05.272Z,8.50
2019-05-15T08:47:07.667Z,8.44
2019-05-15T08:48:05.845Z,8.44
2019-05-15T08:49:05.823Z,8.38
2019-05-15T08:50:05.283Z,8.25
2019-05-15T08:51:05.272Z,8.19
2019-05-15T08:52:09.403Z,8.19
2019-05-15T08:53:05.660Z,8.25
2019-05-15T08:54:07.946Z,8.19
2019-05-15T08:55:08.330Z,8.19
2019-05-15T08:56:08.373Z,8.12
2019-05-15T08:57:08.290Z,8.12
2019-05-15T08:58:10.837Z,8.12
2019-05-15T08:59:05.491Z,8.12
2019-05-15T09:00:05.679Z,8.06
2019-05-15T09:01:05.890Z,8.00
2019-05-15T09:02:07.708Z,8.00
2019-05-15T09:03:05.259Z,8.25
2019-05-15T09:04:05.506Z,8.31
2019-05-15T09:05:08.282Z,8.31
2019-05-15T09:06:05.158Z,8.31
2019-05-15T09:07:09.143Z,8.38
2019-05-15T09:08:05.582Z,8.38
2019-05-15T09:09:05.710Z,8.44
2019-05-15T09:10:05.157Z,8.50
2019-05-15T09:11:08.745Z,8.62
2019-05-15T09:12:08.249Z,8.69
2019-05-15T09:13:05.962Z,8.75
2019-05-15T09:14:08.156Z,8.75
2019-05-15T09:15:07.747Z,8.75
2019-05-15T09:16:08.120Z,8.88
2019-05-15T09:17:05.485Z,8.81
2019-05-15T09:18:12.190Z,8.81
2019-05-15T09:19:08.171Z,8.81
2019-05-15T09:20:05.400Z,8.75
2019-05-15T09:21:05.158Z,8.75
2019-05-15T09:22:05.237Z,8.81
2019-05-15T09:23:05.587Z,8.88
2019-05-15T09:24:05.870Z,8.88
2019-05-15T09:25:08.723Z,8.94
2019-05-15T09:26:05.244Z,8.94
2019-05-15T09:27:09.400Z,9.00
2019-05-15T09:28:05.642Z,9.06
2019-05-15T09:29:05.874Z,9.19
2019-05-15T09:30:08.527Z,9.12
2019-05-15T09:31:07.791Z,9.19
2019-05-15T09:32:08.142Z,9.19
2019-05-15T09:33:05.552Z,9.12
2019-05-15T09:34:05.147Z,9.00
2019-05-15T09:35:08.154Z,9.00
2019-05-15T09:36:05.803Z,9.06
2019-05-15T09:37:05.580Z,9.00
2019-05-15T09:38:04.994Z,9.06
2019-05-15T09:39:05.147Z,9.00
2019-05-15T09:40:05.319Z,9.00
2019-05-15T09:41:05.474Z,9.06
2019-05-15T09:42:05.670Z,9.00
2019-05-15T09:43:05.643Z,8.94
2019-05-15T09:44:07.855Z,9.00
2019-05-15T09:45:05.312Z,9.00
2019-05-15T09:46:07.479Z,9.00
2019-05-15T09:47:05.403Z,9.00
2019-05-15T09:48:08.789Z,9.06
2019-05-15T09:49:08.189Z,9.06
2019-05-15T09:50:05.326Z,9.00
2019-05-15T09:51:05.572Z,8.94
2019-05-15T09:52:05.629Z,8.94
2019-05-15T09:53:09.110Z,8.94
2019-05-15T09:54:07.939Z,8.94
2019-05-15T09:55:05.478Z,9.00
2019-05-15T09:56:05.100Z,9.00
2019-05-15T09:57:05.711Z,9.00
2019-05-15T09:58:08.072Z,9.00
2019-05-15T09:59:05.511Z,9.00
2019-05-15T10:00:05.493Z,9.00
2019-05-15T10:01:08.144Z,8.88
2019-05-15T10:02:05.081Z,8.81
2019-05-15T10:03:05.799Z,8.75
2019-05-15T10:04:08.127Z,8.75
2019-05-15T10:05:07.201Z,8.75
2019-05-15T10:06:07.783Z,8.75
2019-05-15T10:07:08.051Z,8.75
2019-05-15T10:08:05.315Z,8.81
2019-05-15T10:09:05.562Z,8.88
2019-05-15T10:10:08.497Z,8.88
2019-05-15T10:11:08.420Z,8.81
2019-05-15T10:12:05.567Z,8.81
2019-05-15T10:13:05.644Z,8.81
2019-05-15T10:14:05.555Z,8.75
2019-05-15T10:15:10.420Z,8.75
2019-05-15T10:16:05.099Z,8.81
2019-05-15T10:17:05.471Z,8.94
2019-05-15T10:18:05.793Z,9.00
2019-05-15T10:19:05.075Z,9.00
2019-05-15T10:20:05.158Z,9.06
2019-05-15T10:21:05.654Z,9.00
2019-05-15T10:22:05.840Z,9.00
2019-05-15T10:23:05.408Z,9.00
2019-05-15T10:24:05.482Z,8.94
2019-05-15T10:25:08.278Z,8.81
2019-05-15T10:26:13.505Z,8.94
2019-05-15T10:27:08.145Z,9.00
2019-05-15T10:28:05.402Z,8.94
2019-05-15T10:29:05.903Z,8.88
2019-05-15T10:30:05.968Z,8.88
2019-05-15T10:31:05.957Z,8.81
2019-05-15T10:32:08.409Z,8.88
2019-05-15T10:33:08.328Z,8.94
2019-05-15T10:34:05.953Z,8.94
2019-05-15T10:35:05.167Z,9.06
2019-05-15T10:36:05.404Z,9.06
2019-05-15T10:37:08.233Z,9.06
2019-05-15T10:38:05.493Z,9.12
2019-05-15T10:39:08.032Z,9.06
2019-05-15T10:40:06.127Z,9.06
2019-05-15T10:41:10.978Z,9.12
2019-05-15T10:42:08.002Z,9.12
2019-05-15T10:43:08.657Z,9.12
2019-05-15T10:44:05.555Z,9.12
2019-05-15T10:45:06.270Z,9.06
2019-05-15T10:46:12.360Z,9.06
2019-05-15T10:47:08.601Z,9.06
2019-05-15T10:48:05.246Z,9.12
2019-05-15T10:49:08.403Z,9.12
2019-05-15T10:50:07.826Z,9.19
2019-05-15T10:51:07.022Z,9.25
2019-05-15T10:52:05.637Z,9.31
2019-05-15T10:53:05.818Z,9.31
2019-05-15T10:54:08.486Z,9.56
2019-05-15T10:55:05.732Z,9.62
2019-05-15T10:56:06.058Z,9.56
2019-05-15T10:57:05.305Z,9.56
2019-05-15T10:58:05.841Z,9.62
2019-05-15T10:59:08.461Z,9.69
2019-05-15T11:00:07.583Z,9.69
2019-05-15T11:01:05.637Z,9.69
2019-05-15T11:02:08.021Z,9.88
2019-05-15T11:03:05.158Z,9.88
2019-05-15T11:04:05.316Z,9.81
2019-05-15T11:05:05.790Z,9.81
2019-05-15T11:06:06.054Z,9.81
2019-05-15T11:07:06.050Z,9.81
2019-05-15T11:08:07.738Z,9.81
2019-05-15T11:09:08.204Z,9.81
2019-05-15T11:10:05.173Z,9.75
2019-05-15T11:11:05.232Z,9.81
2019-05-15T11:12:05.402Z,9.81
2019-05-15T11:13:05.670Z,9.81
2019-05-15T11:14:05.488Z,10.06
2019-05-15T11:15:05.395Z,10.19
2019-05-15T11:16:05.894Z,10.06
2019-05-15T11:17:05.392Z,10.06
2019-05-15T11:18:05.650Z,10.06
2019-05-15T11:19:07.871Z,10.06
2019-05-15T11:20:08.154Z,10.00
2019-05-15T11:21:08.064Z,10.00
2019-05-15T11:22:05.898Z,10.00
2019-05-15T11:23:08.061Z,9.94
2019-05-15T11:24:05.716Z,9.94
2019-05-15T11:25:05.250Z,9.94
2019-05-15T11:26:05.645Z,9.94
2019-05-15T11:27:05.250Z,9.94
2019-05-15T11:28:05.393Z,9.94
2019-05-15T11:29:05.828Z,9.94
2019-05-15T11:30:07.721Z,9.94
2019-05-15T11:31:05.666Z,9.81
2019-05-15T11:32:05.647Z,9.81
2019-05-15T11:33:05.816Z,9.81
2019-05-15T11:34:06.059Z,9.88
2019-05-15T11:35:05.257Z,9.88
2019-05-15T11:36:06.151Z,9.88
2019-05-15T11:37:05.889Z,9.88
2019-05-15T11:38:05.580Z,9.81
2019-05-15T11:39:05.729Z,9.81
2019-05-15T11:40:09.497Z,9.75
2019-05-15T11:41:05.589Z,9.69
2019-05-15T11:42:05.625Z,9.69
2019-05-15T11:43:05.306Z,9.69
2019-05-15T11:44:05.021Z,9.75
2019-05-15T11:45:05.563Z,9.75
2019-05-15T11:46:06.212Z,9.81
2019-05-15T11:47:05.488Z,9.69
2019-05-15T11:48:05.095Z,9.62
2019-05-15T11:49:06.109Z,9.62
2019-05-15T11:50:05.273Z,9.62
2019-05-15T11:51:05.473Z,9.62
2019-05-15T11:52:05.165Z,9.62
2019-05-15T11:53:05.403Z,9.69
2019-05-15T11:54:05.343Z,9.69
2019-05-15T11:55:08.098Z,9.88
2019-05-15T11:56:05.990Z,9.81
2019-05-15T11:57:05.243Z,9.69
2019-05-15T11:58:05.103Z,9.69
2019-05-15T11:59:05.895Z,9.75
2019-05-15T12:00:05.820Z,9.75
2019-05-15T12:01:05.081Z,9.81
2019-05-15T12:02:05.341Z,9.81
2019-05-15T12:03:05.414Z,9.81
2019-05-15T12:04:05.639Z,9.88
2019-05-15T12:05:05.879Z,9.94
2019-05-15T12:06:15.729Z,9.94
2019-05-15T12:07:08.131Z,10.00
2019-05-15T12:08:05.630Z,10.00
2019-05-15T12:09:05.888Z,10.12
2019-05-15T12:10:09.810Z,10.12
2019-05-15T12:11:05.565Z,10.12
2019-05-15T12:12:08.657Z,10.19
2019-05-15T12:13:05.076Z,10.19
2019-05-15T12:14:05.255Z,10.25
2019-05-15T12:15:05.332Z,10.19
2019-05-15T12:16:06.830Z,10.19
2019-05-15T12:17:12.093Z,10.12
2019-05-15T12:18:08.045Z,10.06
2019-05-15T12:19:10.104Z,10.06
2019-05-15T12:20:06.782Z,10.06
2019-05-15T12:21:05.266Z,10.06
2019-05-15T12:22:05.990Z,10.00
2019-05-15T12:23:05.433Z,9.94
2019-05-15T12:24:09.046Z,10.00
2019-05-15T12:25:09.299Z,9.94
2019-05-15T12:26:08.462Z,10.00
2019-05-15T12:27:15.080Z,10.00
2019-05-15T12:28:05.493Z,10.00
2019-05-15T12:29:05.578Z,10.00
2019-05-15T12:30:05.717Z,10.06
2019-05-15T12:31:05.881Z,10.06
2019-05-15T12:32:21.755Z,10.06
2019-05-15T12:33:05.561Z,10.06
2019-05-15T12:34:05.194Z,10.06
2019-05-15T12:35:05.809Z,10.06
2019-05-15T12:36:10.125Z,10.06
2019-05-15T12:37:05.394Z,10.12
2019-05-15T12:38:08.845Z,10.12
2019-05-15T12:39:10.346Z,10.00
2019-05-15T13:00:07.424Z,10.31
2019-05-15T13:01:13.720Z,10.31
2019-05-15T13:02:08.016Z,10.31
2019-05-15T13:03:05.390Z,10.31
2019-05-15T13:04:05.629Z,10.38
2019-05-15T13:05:08.208Z,10.38
2019-05-15T13:06:07.918Z,10.50
2019-05-15T13:07:13.667Z,10.44
2019-05-15T13:08:07.784Z,10.44
2019-05-15T13:09:05.331Z,10.38
2019-05-15T13:10:05.935Z,10.38
2019-05-15T13:11:09.626Z,10.31
2019-05-15T13:12:08.047Z,10.25
2019-05-15T13:13:05.795Z,10.19
2019-05-15T13:14:05.511Z,10.19
2019-05-15T13:15:08.028Z,10.25
2019-05-15T13:16:05.434Z,10.25
2019-05-15T13:17:05.872Z,10.31
2019-05-15T13:18:05.045Z,10.31
2019-05-15T13:19:05.413Z,10.38
2019-05-15T13:20:05.755Z,10.38
2019-05-15T13:21:06.042Z,10.44
2019-05-15T13:22:17.296Z,10.44
2019-05-15T13:23:05.584Z,10.50
2019-05-15T13:24:07.971Z,10.50
2019-05-15T13:25:05.276Z,10.50
2019-05-15T13:26:13.338Z,10.50
2019-05-15T13:27:07.659Z,10.44
2019-05-15T13:28:05.660Z,10.44
2019-05-15T13:29:05.298Z,10.44
2019-05-15T13:30:05.444Z,10.38
2019-05-15T13:31:05.600Z,10.25
2019-05-15T13:32:08.023Z,10.25
2019-05-15T13:33:05.679Z,10.38
2019-05-15T13:34:07.934Z,10.50
2019-05-15T13:35:05.798Z,10.50